sensor_id;sensor_type;location;lat;lon;timestamp;P1;durP1;ratioP1;P2;durP2;ratioP2
22219;SDS011;11279;48.364;10.904;2023-07-13T00:00:39;11.93;;;7.17;;
22219;SDS011;11279;48.364;10.904;2023-07-13T00:01:40;11.38;;;6.85;;
22219;SDS011;11279;48.364;10.904;2023-07-13T00:02:41;9.13;;;6.43;;
22219;SDS011;11279;48.364;10.904;2023-07-13T00:03:42;9.70;;;5.83;;
22219;SDS011;11279;48.364;10.904;2023-07-13T00:04:42;12.07;;;6.43;;
22219;SDS011;11279;48.364;10.904;2023-07-13T00:05:43;12.13;;;6.70;;
22219;SDS011;11279;48.364;10.904;2023-07-13T00:06:44;8.70;;;6.10;;
22219;SDS011;11279;48.364;10.904;2023-07-13T00:07:45;9.35;;;6.15;;
22219;SDS011;11279;48.364;10.904;2023-07-13T00:08:46;9.35;;;5.93;;
22219;SDS011;11279;48.364;10.904;2023-07-13T00:09:47;11.70;;;6.72;;
22219;SDS011;11279;48.364;10.904;2023-07-13T00:10:48;8.17;;;5.47;;
22219;SDS011;11279;48.364;10.904;2023-07-13T00:11:56;7.37;;;5.00;;
22219;SDS011;11279;48.364;10.904;2023-07-13T00:12:57;9.23;;;5.30;;
22219;SDS011;11279;48.364;10.904;2023-07-13T00:13:58;8.30;;;5.17;;
22219;SDS011;11279;48.364;10.904;2023-07-13T00:15:04;8.43;;;5.78;;
22219;SDS011;11279;48.364;10.904;2023-07-13T00:16:07;7.40;;;5.55;;
22219;SDS011;11279;48.364;10.904;2023-07-13T00:17:08;7.87;;;5.33;;
22219;SDS011;11279;48.364;10.904;2023-07-13T00:18:08;8.43;;;5.37;;
22219;SDS011;11279;48.364;10.904;2023-07-13T00:19:09;10.90;;;5.70;;
22219;SDS011;11279;48.364;10.904;2023-07-13T00:20:11;9.13;;;5.68;;
22219;SDS011;11279;48.364;10.904;2023-07-13T00:21:12;9.77;;;5.73;;
22219;SDS011;11279;48.364;10.904;2023-07-13T00:22:13;11.23;;;6.07;;
22219;SDS011;11279;48.364;10.904;2023-07-13T00:23:13;10.33;;;5.77;;
22219;SDS011;11279;48.364;10.904;2023-07-13T00:24:15;10.70;;;5.90;;
22219;SDS011;11279;48.364;10.904;2023-07-13T00:25:19;9.27;;;6.18;;
22219;SDS011;11279;48.364;10.904;2023-07-13T00:26:20;11.55;;;7.38;;
22219;SDS011;11279;48.364;10.904;2023-07-13T00:27:20;11.30;;;6.40;;
22219;SDS011;11279;48.364;10.904;2023-07-13T00:28:21;9.47;;;5.93;;
22219;SDS011;11279;48.364;10.904;2023-07-13T00:29:22;14.33;;;6.30;;
22219;SDS011;11279;48.364;10.904;2023-07-13T00:30:22;11.50;;;6.90;;
22219;SDS011;11279;48.364;10.904;2023-07-13T00:31:23;11.00;;;6.13;;
22219;SDS011;11279;48.364;10.904;2023-07-13T00:32:24;12.17;;;6.03;;
22219;SDS011;11279;48.364;10.904;2023-07-13T00:33:28;10.18;;;5.80;;
22219;SDS011;11279;48.364;10.904;2023-07-13T00:34:28;11.25;;;6.10;;
22219;SDS011;11279;48.364;10.904;2023-07-13T00:35:30;11.13;;;6.53;;
22219;SDS011;11279;48.364;10.904;2023-07-13T00:36:31;12.32;;;6.03;;
22219;SDS011;11279;48.364;10.904;2023-07-13T00:37:31;11.53;;;6.00;;
22219;SDS011;11279;48.364;10.904;2023-07-13T00:38:32;13.53;;;7.40;;
22219;SDS011;11279;48.364;10.904;2023-07-13T00:39:33;11.43;;;7.07;;
22219;SDS011;11279;48.364;10.904;2023-07-13T00:40:34;9.18;;;5.90;;
22219;SDS011;11279;48.364;10.904;2023-07-13T00:41:34;10.20;;;6.50;;
22219;SDS011;11279;48.364;10.904;2023-07-13T00:42:36;12.95;;;6.43;;
22219;SDS011;11279;48.364;10.904;2023-07-13T00:43:37;11.50;;;6.67;;
22219;SDS011;11279;48.364;10.904;2023-07-13T00:44:37;13.03;;;6.77;;
22219;SDS011;11279;48.364;10.904;2023-07-13T00:46:43;12.50;;;6.35;;
22219;SDS011;11279;48.364;10.904;2023-07-13T00:47:43;10.73;;;6.43;;
22219;SDS011;11279;48.364;10.904;2023-07-13T00:48:44;11.87;;;6.87;;
22219;SDS011;11279;48.364;10.904;2023-07-13T00:49:46;10.57;;;6.63;;
22219;SDS011;11279;48.364;10.904;2023-07-13T00:50:48;10.23;;;6.53;;
22219;SDS011;11279;48.364;10.904;2023-07-13T00:51:55;12.07;;;6.95;;
22219;SDS011;11279;48.364;10.904;2023-07-13T00:53:00;10.98;;;6.30;;
22219;SDS011;11279;48.364;10.904;2023-07-13T00:54:03;10.73;;;6.40;;
22219;SDS011;11279;48.364;10.904;2023-07-13T00:55:05;11.05;;;7.10;;
22219;SDS011;11279;48.364;10.904;2023-07-13T00:56:06;9.87;;;6.30;;
22219;SDS011;11279;48.364;10.904;2023-07-13T00:57:07;10.87;;;5.67;;
22219;SDS011;11279;48.364;10.904;2023-07-13T00:58:09;8.75;;;6.00;;
22219;SDS011;11279;48.364;10.904;2023-07-13T00:59:10;12.13;;;6.60;;
22219;SDS011;11279;48.364;10.904;2023-07-13T01:00:12;10.07;;;6.85;;
22219;SDS011;11279;48.364;10.904;2023-07-13T01:01:12;10.80;;;6.85;;
22219;SDS011;11279;48.364;10.904;2023-07-13T01:02:13;10.10;;;6.00;;
22219;SDS011;11279;48.364;10.904;2023-07-13T01:03:14;11.00;;;6.90;;
22219;SDS011;11279;48.364;10.904;2023-07-13T01:04:15;12.25;;;7.10;;
22219;SDS011;11279;48.364;10.904;2023-07-13T01:05:17;9.87;;;6.43;;
22219;SDS011;11279;48.364;10.904;2023-07-13T01:06:19;11.20;;;6.60;;
22219;SDS011;11279;48.364;10.904;2023-07-13T01:07:20;12.03;;;7.47;;
22219;SDS011;11279;48.364;10.904;2023-07-13T01:08:21;11.27;;;6.50;;
22219;SDS011;11279;48.364;10.904;2023-07-13T01:09:22;14.02;;;7.60;;
22219;SDS011;11279;48.364;10.904;2023-07-13T01:10:22;13.23;;;7.53;;
22219;SDS011;11279;48.364;10.904;2023-07-13T01:11:23;10.52;;;7.13;;
22219;SDS011;11279;48.364;10.904;2023-07-13T01:12:24;11.30;;;6.87;;
22219;SDS011;11279;48.364;10.904;2023-07-13T01:13:24;12.57;;;7.30;;
22219;SDS011;11279;48.364;10.904;2023-07-13T01:14:25;15.23;;;7.67;;
22219;SDS011;11279;48.364;10.904;2023-07-13T01:15:34;12.20;;;7.03;;
22219;SDS011;11279;48.364;10.904;2023-07-13T01:16:46;12.93;;;7.88;;
22219;SDS011;11279;48.364;10.904;2023-07-13T01:17:50;13.68;;;7.78;;
22219;SDS011;11279;48.364;10.904;2023-07-13T01:18:50;12.23;;;7.47;;
22219;SDS011;11279;48.364;10.904;2023-07-13T01:19:51;12.10;;;8.23;;
22219;SDS011;11279;48.364;10.904;2023-07-13T01:20:55;11.83;;;8.70;;
22219;SDS011;11279;48.364;10.904;2023-07-13T01:21:59;17.52;;;8.57;;
22219;SDS011;11279;48.364;10.904;2023-07-13T01:23:00;11.33;;;8.23;;
22219;SDS011;11279;48.364;10.904;2023-07-13T01:24:00;13.53;;;8.00;;
22219;SDS011;11279;48.364;10.904;2023-07-13T01:25:02;12.20;;;8.65;;
22219;SDS011;11279;48.364;10.904;2023-07-13T01:26:03;12.00;;;7.93;;
22219;SDS011;11279;48.364;10.904;2023-07-13T01:27:04;14.43;;;8.17;;
22219;SDS011;11279;48.364;10.904;2023-07-13T01:28:06;14.18;;;8.48;;
22219;SDS011;11279;48.364;10.904;2023-07-13T01:29:08;14.00;;;8.63;;
22219;SDS011;11279;48.364;10.904;2023-07-13T01:30:09;11.00;;;8.27;;
22219;SDS011;11279;48.364;10.904;2023-07-13T01:31:10;11.97;;;8.30;;
22219;SDS011;11279;48.364;10.904;2023-07-13T01:32:12;13.17;;;8.73;;
22219;SDS011;11279;48.364;10.904;2023-07-13T01:33:16;14.23;;;7.70;;
22219;SDS011;11279;48.364;10.904;2023-07-13T01:34:17;12.05;;;8.95;;
22219;SDS011;11279;48.364;10.904;2023-07-13T01:35:18;12.50;;;8.87;;
22219;SDS011;11279;48.364;10.904;2023-07-13T01:36:18;13.13;;;8.00;;
22219;SDS011;11279;48.364;10.904;2023-07-13T01:37:21;13.52;;;9.13;;
22219;SDS011;11279;48.364;10.904;2023-07-13T01:38:25;13.98;;;8.43;;
22219;SDS011;11279;48.364;10.904;2023-07-13T01:39:26;10.70;;;7.60;;
22219;SDS011;11279;48.364;10.904;2023-07-13T01:40:26;12.47;;;8.43;;
22219;SDS011;11279;48.364;10.904;2023-07-13T01:41:27;14.73;;;8.90;;
22219;SDS011;11279;48.364;10.904;2023-07-13T01:42:28;13.70;;;8.73;;
22219;SDS011;11279;48.364;10.904;2023-07-13T01:43:28;14.67;;;9.50;;
22219;SDS011;11279;48.364;10.904;2023-07-13T01:44:29;15.33;;;10.47;;
22219;SDS011;11279;48.364;10.904;2023-07-13T01:45:29;12.37;;;8.77;;
22219;SDS011;11279;48.364;10.904;2023-07-13T01:46:30;12.43;;;8.77;;
22219;SDS011;11279;48.364;10.904;2023-07-13T01:47:30;12.97;;;9.37;;
22219;SDS011;11279;48.364;10.904;2023-07-13T01:48:31;12.43;;;9.00;;
22219;SDS011;11279;48.364;10.904;2023-07-13T01:49:31;13.00;;;8.53;;
22219;SDS011;11279;48.364;10.904;2023-07-13T01:50:32;15.20;;;9.37;;
22219;SDS011;11279;48.364;10.904;2023-07-13T01:51:33;16.08;;;9.75;;
22219;SDS011;11279;48.364;10.904;2023-07-13T01:52:33;14.37;;;9.90;;
22219;SDS011;11279;48.364;10.904;2023-07-13T01:53:34;15.90;;;9.60;;
22219;SDS011;11279;48.364;10.904;2023-07-13T01:54:34;15.40;;;9.77;;
22219;SDS011;11279;48.364;10.904;2023-07-13T01:55:35;15.73;;;10.07;;
22219;SDS011;11279;48.364;10.904;2023-07-13T01:56:35;15.20;;;9.40;;
22219;SDS011;11279;48.364;10.904;2023-07-13T01:57:36;15.10;;;10.63;;
22219;SDS011;11279;48.364;10.904;2023-07-13T01:58:36;17.53;;;10.57;;
22219;SDS011;11279;48.364;10.904;2023-07-13T01:59:37;15.73;;;9.73;;
22219;SDS011;11279;48.364;10.904;2023-07-13T02:00:37;13.83;;;9.80;;
22219;SDS011;11279;48.364;10.904;2023-07-13T02:01:38;17.10;;;9.43;;
22219;SDS011;11279;48.364;10.904;2023-07-13T02:02:38;15.17;;;9.53;;
22219;SDS011;11279;48.364;10.904;2023-07-13T02:03:39;17.73;;;10.30;;
22219;SDS011;11279;48.364;10.904;2023-07-13T02:04:40;17.07;;;9.03;;
22219;SDS011;11279;48.364;10.904;2023-07-13T02:05:40;14.30;;;9.23;;
22219;SDS011;11279;48.364;10.904;2023-07-13T02:06:40;13.13;;;8.20;;
22219;SDS011;11279;48.364;10.904;2023-07-13T02:07:41;14.57;;;9.13;;
22219;SDS011;11279;48.364;10.904;2023-07-13T02:08:42;12.63;;;8.70;;
22219;SDS011;11279;48.364;10.904;2023-07-13T02:09:42;15.07;;;9.07;;
22219;SDS011;11279;48.364;10.904;2023-07-13T02:10:43;14.67;;;9.43;;
22219;SDS011;11279;48.364;10.904;2023-07-13T02:11:43;12.53;;;8.93;;
22219;SDS011;11279;48.364;10.904;2023-07-13T02:12:44;14.53;;;9.70;;
22219;SDS011;11279;48.364;10.904;2023-07-13T02:13:45;14.73;;;8.88;;
22219;SDS011;11279;48.364;10.904;2023-07-13T02:14:45;13.57;;;8.77;;
22219;SDS011;11279;48.364;10.904;2023-07-13T02:15:45;16.53;;;9.80;;
22219;SDS011;11279;48.364;10.904;2023-07-13T02:16:46;10.17;;;7.90;;
22219;SDS011;11279;48.364;10.904;2023-07-13T02:17:48;15.35;;;8.25;;
22219;SDS011;11279;48.364;10.904;2023-07-13T02:18:48;14.23;;;8.87;;
22219;SDS011;11279;48.364;10.904;2023-07-13T02:19:52;16.73;;;10.02;;
22219;SDS011;11279;48.364;10.904;2023-07-13T02:20:52;15.33;;;9.47;;
22219;SDS011;11279;48.364;10.904;2023-07-13T02:21:53;13.40;;;9.47;;
22219;SDS011;11279;48.364;10.904;2023-07-13T02:22:53;13.47;;;8.80;;
22219;SDS011;11279;48.364;10.904;2023-07-13T02:23:54;17.73;;;8.73;;
22219;SDS011;11279;48.364;10.904;2023-07-13T02:24:55;11.07;;;8.17;;
22219;SDS011;11279;48.364;10.904;2023-07-13T02:25:58;12.33;;;8.23;;
22219;SDS011;11279;48.364;10.904;2023-07-13T02:27:00;14.23;;;8.57;;
22219;SDS011;11279;48.364;10.904;2023-07-13T02:28:00;14.60;;;8.80;;
22219;SDS011;11279;48.364;10.904;2023-07-13T02:29:01;13.27;;;8.43;;
22219;SDS011;11279;48.364;10.904;2023-07-13T02:30:02;11.97;;;8.17;;
22219;SDS011;11279;48.364;10.904;2023-07-13T02:31:07;17.65;;;9.55;;
22219;SDS011;11279;48.364;10.904;2023-07-13T02:32:08;13.32;;;8.23;;
22219;SDS011;11279;48.364;10.904;2023-07-13T02:33:08;14.83;;;8.97;;
22219;SDS011;11279;48.364;10.904;2023-07-13T02:34:09;12.73;;;7.70;;
22219;SDS011;11279;48.364;10.904;2023-07-13T02:35:09;13.23;;;7.83;;
22219;SDS011;11279;48.364;10.904;2023-07-13T02:36:10;14.30;;;9.53;;
22219;SDS011;11279;48.364;10.904;2023-07-13T02:37:11;13.90;;;8.57;;
22219;SDS011;11279;48.364;10.904;2023-07-13T02:38:12;12.03;;;8.30;;
22219;SDS011;11279;48.364;10.904;2023-07-13T02:39:13;16.00;;;7.77;;
22219;SDS011;11279;48.364;10.904;2023-07-13T02:40:13;13.57;;;8.77;;
22219;SDS011;11279;48.364;10.904;2023-07-13T02:41:14;14.33;;;8.47;;
22219;SDS011;11279;48.364;10.904;2023-07-13T02:42:14;12.87;;;9.30;;
22219;SDS011;11279;48.364;10.904;2023-07-13T02:43:15;10.90;;;8.23;;
22219;SDS011;11279;48.364;10.904;2023-07-13T02:44:15;13.80;;;9.30;;
22219;SDS011;11279;48.364;10.904;2023-07-13T02:45:16;15.93;;;9.27;;
22219;SDS011;11279;48.364;10.904;2023-07-13T02:46:16;15.20;;;9.43;;
22219;SDS011;11279;48.364;10.904;2023-07-13T02:47:17;14.13;;;9.00;;
22219;SDS011;11279;48.364;10.904;2023-07-13T02:48:17;14.20;;;8.10;;
22219;SDS011;11279;48.364;10.904;2023-07-13T02:49:18;16.23;;;8.77;;
22219;SDS011;11279;48.364;10.904;2023-07-13T02:50:18;13.67;;;9.33;;
22219;SDS011;11279;48.364;10.904;2023-07-13T02:51:19;16.00;;;8.87;;
22219;SDS011;11279;48.364;10.904;2023-07-13T02:52:19;14.00;;;8.90;;
22219;SDS011;11279;48.364;10.904;2023-07-13T02:53:19;15.20;;;9.13;;
22219;SDS011;11279;48.364;10.904;2023-07-13T02:54:20;12.20;;;7.50;;
22219;SDS011;11279;48.364;10.904;2023-07-13T02:55:20;13.60;;;8.47;;
22219;SDS011;11279;48.364;10.904;2023-07-13T02:56:25;15.77;;;8.27;;
22219;SDS011;11279;48.364;10.904;2023-07-13T02:57:26;14.23;;;8.20;;
22219;SDS011;11279;48.364;10.904;2023-07-13T02:58:28;14.13;;;8.30;;
22219;SDS011;11279;48.364;10.904;2023-07-13T02:59:28;12.17;;;8.37;;
22219;SDS011;11279;48.364;10.904;2023-07-13T03:00:29;12.47;;;7.70;;
22219;SDS011;11279;48.364;10.904;2023-07-13T03:01:29;13.37;;;7.97;;
22219;SDS011;11279;48.364;10.904;2023-07-13T03:02:30;13.23;;;7.43;;
22219;SDS011;11279;48.364;10.904;2023-07-13T03:03:31;10.07;;;7.47;;
22219;SDS011;11279;48.364;10.904;2023-07-13T03:04:31;13.70;;;8.40;;
22219;SDS011;11279;48.364;10.904;2023-07-13T03:05:31;12.90;;;7.60;;
22219;SDS011;11279;48.364;10.904;2023-07-13T03:06:32;11.77;;;7.27;;
22219;SDS011;11279;48.364;10.904;2023-07-13T03:07:33;12.18;;;7.20;;
22219;SDS011;11279;48.364;10.904;2023-07-13T03:08:33;12.80;;;7.07;;
22219;SDS011;11279;48.364;10.904;2023-07-13T03:09:34;14.43;;;8.20;;
22219;SDS011;11279;48.364;10.904;2023-07-13T03:10:35;13.20;;;6.73;;
22219;SDS011;11279;48.364;10.904;2023-07-13T03:11:35;15.20;;;7.90;;
22219;SDS011;11279;48.364;10.904;2023-07-13T03:12:36;10.77;;;7.50;;
22219;SDS011;11279;48.364;10.904;2023-07-13T03:13:36;10.57;;;6.70;;
22219;SDS011;11279;48.364;10.904;2023-07-13T03:14:37;14.32;;;7.18;;
22219;SDS011;11279;48.364;10.904;2023-07-13T03:15:38;11.83;;;7.17;;
22219;SDS011;11279;48.364;10.904;2023-07-13T03:16:38;14.13;;;8.33;;
22219;SDS011;11279;48.364;10.904;2023-07-13T03:17:39;14.87;;;7.70;;
22219;SDS011;11279;48.364;10.904;2023-07-13T03:18:40;14.90;;;8.70;;
22219;SDS011;11279;48.364;10.904;2023-07-13T03:19:40;12.07;;;7.57;;
22219;SDS011;11279;48.364;10.904;2023-07-13T03:20:41;11.10;;;7.87;;
22219;SDS011;11279;48.364;10.904;2023-07-13T03:21:41;14.03;;;8.13;;
22219;SDS011;11279;48.364;10.904;2023-07-13T03:22:41;12.83;;;8.50;;
22219;SDS011;11279;48.364;10.904;2023-07-13T03:23:42;14.07;;;7.77;;
22219;SDS011;11279;48.364;10.904;2023-07-13T03:24:43;12.50;;;8.10;;
22219;SDS011;11279;48.364;10.904;2023-07-13T03:25:44;10.23;;;6.90;;
22219;SDS011;11279;48.364;10.904;2023-07-13T03:26:45;11.13;;;7.32;;
22219;SDS011;11279;48.364;10.904;2023-07-13T03:27:45;14.07;;;7.60;;
22219;SDS011;11279;48.364;10.904;2023-07-13T03:28:46;11.07;;;6.83;;
22219;SDS011;11279;48.364;10.904;2023-07-13T03:29:46;11.57;;;6.60;;
22219;SDS011;11279;48.364;10.904;2023-07-13T03:30:46;12.60;;;7.50;;
22219;SDS011;11279;48.364;10.904;2023-07-13T03:31:47;14.37;;;7.40;;
22219;SDS011;11279;48.364;10.904;2023-07-13T03:32:47;11.33;;;6.97;;
22219;SDS011;11279;48.364;10.904;2023-07-13T03:33:48;12.20;;;6.93;;
22219;SDS011;11279;48.364;10.904;2023-07-13T03:34:48;11.77;;;6.90;;
22219;SDS011;11279;48.364;10.904;2023-07-13T03:35:49;12.30;;;7.47;;
22219;SDS011;11279;48.364;10.904;2023-07-13T03:36:49;13.07;;;7.13;;
22219;SDS011;11279;48.364;10.904;2023-07-13T03:37:49;10.40;;;6.70;;
22219;SDS011;11279;48.364;10.904;2023-07-13T03:38:55;12.73;;;6.55;;
22219;SDS011;11279;48.364;10.904;2023-07-13T03:39:57;11.90;;;7.00;;
22219;SDS011;11279;48.364;10.904;2023-07-13T03:40:57;11.27;;;7.20;;
22219;SDS011;11279;48.364;10.904;2023-07-13T03:41:57;13.30;;;7.43;;
22219;SDS011;11279;48.364;10.904;2023-07-13T03:42:58;12.10;;;6.97;;
22219;SDS011;11279;48.364;10.904;2023-07-13T03:43:58;11.77;;;6.43;;
22219;SDS011;11279;48.364;10.904;2023-07-13T03:44:59;10.63;;;6.17;;
22219;SDS011;11279;48.364;10.904;2023-07-13T03:45:59;8.57;;;6.10;;
22219;SDS011;11279;48.364;10.904;2023-07-13T03:47:00;12.83;;;6.37;;
22219;SDS011;11279;48.364;10.904;2023-07-13T03:48:00;13.53;;;7.37;;
22219;SDS011;11279;48.364;10.904;2023-07-13T03:49:00;11.13;;;6.63;;
22219;SDS011;11279;48.364;10.904;2023-07-13T03:50:01;12.20;;;6.87;;
22219;SDS011;11279;48.364;10.904;2023-07-13T03:51:02;12.23;;;7.07;;
22219;SDS011;11279;48.364;10.904;2023-07-13T03:52:02;11.67;;;6.27;;
22219;SDS011;11279;48.364;10.904;2023-07-13T03:53:03;11.93;;;6.23;;
22219;SDS011;11279;48.364;10.904;2023-07-13T03:54:03;7.77;;;5.93;;
22219;SDS011;11279;48.364;10.904;2023-07-13T03:55:04;9.23;;;5.77;;
22219;SDS011;11279;48.364;10.904;2023-07-13T03:56:06;10.90;;;7.35;;
22219;SDS011;11279;48.364;10.904;2023-07-13T03:57:07;12.03;;;7.70;;
22219;SDS011;11279;48.364;10.904;2023-07-13T03:59:30;9.85;;;6.07;;
22219;SDS011;11279;48.364;10.904;2023-07-13T04:00:31;14.33;;;6.40;;
22219;SDS011;11279;48.364;10.904;2023-07-13T04:01:31;10.43;;;6.40;;
22219;SDS011;11279;48.364;10.904;2023-07-13T04:02:32;10.63;;;6.13;;
22219;SDS011;11279;48.364;10.904;2023-07-13T04:03:32;10.40;;;5.93;;
22219;SDS011;11279;48.364;10.904;2023-07-13T04:04:34;11.70;;;6.45;;
22219;SDS011;11279;48.364;10.904;2023-07-13T04:05:34;10.30;;;6.13;;
22219;SDS011;11279;48.364;10.904;2023-07-13T04:06:36;12.23;;;6.68;;
22219;SDS011;11279;48.364;10.904;2023-07-13T04:07:37;9.48;;;5.32;;
22219;SDS011;11279;48.364;10.904;2023-07-13T04:08:37;13.37;;;5.60;;
22219;SDS011;11279;48.364;10.904;2023-07-13T04:09:38;16.07;;;6.60;;
22219;SDS011;11279;48.364;10.904;2023-07-13T04:10:38;10.40;;;5.90;;
22219;SDS011;11279;48.364;10.904;2023-07-13T04:11:39;8.67;;;5.20;;
22219;SDS011;11279;48.364;10.904;2023-07-13T04:12:39;11.07;;;5.60;;
22219;SDS011;11279;48.364;10.904;2023-07-13T04:13:40;14.23;;;5.97;;
22219;SDS011;11279;48.364;10.904;2023-07-13T04:14:40;9.70;;;5.17;;
22219;SDS011;11279;48.364;10.904;2023-07-13T04:15:41;8.03;;;4.63;;
22219;SDS011;11279;48.364;10.904;2023-07-13T04:16:41;7.87;;;5.23;;
22219;SDS011;11279;48.364;10.904;2023-07-13T04:17:42;10.03;;;4.70;;
22219;SDS011;11279;48.364;10.904;2023-07-13T04:18:42;15.97;;;4.80;;
22219;SDS011;11279;48.364;10.904;2023-07-13T04:19:43;8.00;;;4.50;;
22219;SDS011;11279;48.364;10.904;2023-07-13T04:20:43;8.73;;;4.60;;
22219;SDS011;11279;48.364;10.904;2023-07-13T04:21:44;8.27;;;4.90;;
22219;SDS011;11279;48.364;10.904;2023-07-13T04:22:45;7.38;;;4.53;;
22219;SDS011;11279;48.364;10.904;2023-07-13T04:23:46;8.70;;;4.83;;
22219;SDS011;11279;48.364;10.904;2023-07-13T04:24:46;11.13;;;5.77;;
22219;SDS011;11279;48.364;10.904;2023-07-13T04:25:47;10.17;;;4.93;;
22219;SDS011;11279;48.364;10.904;2023-07-13T04:26:49;8.27;;;4.75;;
22219;SDS011;11279;48.364;10.904;2023-07-13T04:27:50;10.43;;;4.43;;
22219;SDS011;11279;48.364;10.904;2023-07-13T04:28:51;7.97;;;4.17;;
22219;SDS011;11279;48.364;10.904;2023-07-13T04:29:52;7.18;;;4.30;;
22219;SDS011;11279;48.364;10.904;2023-07-13T04:30:52;10.33;;;4.23;;
22219;SDS011;11279;48.364;10.904;2023-07-13T04:31:53;8.80;;;4.38;;
22219;SDS011;11279;48.364;10.904;2023-07-13T04:32:54;9.67;;;4.77;;
22219;SDS011;11279;48.364;10.904;2023-07-13T04:33:54;10.50;;;4.50;;
22219;SDS011;11279;48.364;10.904;2023-07-13T04:34:54;7.90;;;4.43;;
22219;SDS011;11279;48.364;10.904;2023-07-13T04:35:56;7.53;;;4.33;;
22219;SDS011;11279;48.364;10.904;2023-07-13T04:36:57;6.50;;;4.10;;
22219;SDS011;11279;48.364;10.904;2023-07-13T04:37:57;7.90;;;3.83;;
22219;SDS011;11279;48.364;10.904;2023-07-13T04:38:58;9.80;;;4.63;;
22219;SDS011;11279;48.364;10.904;2023-07-13T04:39:58;9.67;;;4.47;;
22219;SDS011;11279;48.364;10.904;2023-07-13T04:41:00;12.00;;;4.30;;
22219;SDS011;11279;48.364;10.904;2023-07-13T04:42:01;10.90;;;4.35;;
22219;SDS011;11279;48.364;10.904;2023-07-13T04:43:01;9.17;;;4.27;;
22219;SDS011;11279;48.364;10.904;2023-07-13T04:44:02;12.23;;;4.87;;
22219;SDS011;11279;48.364;10.904;2023-07-13T04:45:03;9.17;;;4.20;;
22219;SDS011;11279;48.364;10.904;2023-07-13T04:46:04;6.90;;;4.03;;
22219;SDS011;11279;48.364;10.904;2023-07-13T04:47:06;10.13;;;4.28;;
22219;SDS011;11279;48.364;10.904;2023-07-13T04:48:06;8.57;;;3.90;;
22219;SDS011;11279;48.364;10.904;2023-07-13T04:49:07;8.10;;;4.47;;
22219;SDS011;11279;48.364;10.904;2023-07-13T04:50:08;7.80;;;4.67;;
22219;SDS011;11279;48.364;10.904;2023-07-13T04:51:10;12.18;;;4.47;;
22219;SDS011;11279;48.364;10.904;2023-07-13T04:52:11;7.00;;;4.23;;
22219;SDS011;11279;48.364;10.904;2023-07-13T04:53:12;8.20;;;4.10;;
22219;SDS011;11279;48.364;10.904;2023-07-13T04:54:12;10.77;;;4.57;;
22219;SDS011;11279;48.364;10.904;2023-07-13T04:55:13;8.03;;;4.30;;
22219;SDS011;11279;48.364;10.904;2023-07-13T04:56:13;9.23;;;4.10;;
22219;SDS011;11279;48.364;10.904;2023-07-13T04:57:14;7.17;;;4.20;;
22219;SDS011;11279;48.364;10.904;2023-07-13T04:58:14;8.47;;;4.30;;
22219;SDS011;11279;48.364;10.904;2023-07-13T04:59:15;6.73;;;4.13;;
22219;SDS011;11279;48.364;10.904;2023-07-13T05:00:16;7.20;;;4.13;;
22219;SDS011;11279;48.364;10.904;2023-07-13T05:01:16;10.73;;;3.90;;
22219;SDS011;11279;48.364;10.904;2023-07-13T05:02:17;6.90;;;4.07;;
22219;SDS011;11279;48.364;10.904;2023-07-13T05:03:18;6.93;;;3.90;;
22219;SDS011;11279;48.364;10.904;2023-07-13T05:04:18;7.37;;;4.13;;
22219;SDS011;11279;48.364;10.904;2023-07-13T05:05:19;8.03;;;4.10;;
22219;SDS011;11279;48.364;10.904;2023-07-13T05:06:19;7.20;;;3.87;;
22219;SDS011;11279;48.364;10.904;2023-07-13T05:07:21;6.10;;;3.53;;
22219;SDS011;11279;48.364;10.904;2023-07-13T05:08:21;8.23;;;3.97;;
22219;SDS011;11279;48.364;10.904;2023-07-13T05:09:22;11.67;;;4.53;;
22219;SDS011;11279;48.364;10.904;2023-07-13T05:10:22;6.30;;;3.73;;
22219;SDS011;11279;48.364;10.904;2023-07-13T05:11:23;6.07;;;3.53;;
22219;SDS011;11279;48.364;10.904;2023-07-13T05:12:24;6.17;;;3.70;;
22219;SDS011;11279;48.364;10.904;2023-07-13T05:13:24;6.63;;;3.47;;
22219;SDS011;11279;48.364;10.904;2023-07-13T05:14:25;8.53;;;3.60;;
22219;SDS011;11279;48.364;10.904;2023-07-13T05:15:26;7.87;;;3.83;;
22219;SDS011;11279;48.364;10.904;2023-07-13T05:16:27;9.35;;;3.70;;
22219;SDS011;11279;48.364;10.904;2023-07-13T05:17:27;8.27;;;3.75;;
22219;SDS011;11279;48.364;10.904;2023-07-13T05:18:28;6.13;;;3.53;;
22219;SDS011;11279;48.364;10.904;2023-07-13T05:19:29;7.45;;;4.00;;
22219;SDS011;11279;48.364;10.904;2023-07-13T05:20:30;11.57;;;3.90;;
22219;SDS011;11279;48.364;10.904;2023-07-13T05:21:30;5.60;;;3.47;;
22219;SDS011;11279;48.364;10.904;2023-07-13T05:22:31;6.63;;;3.33;;
22219;SDS011;11279;48.364;10.904;2023-07-13T05:23:31;6.90;;;3.33;;
22219;SDS011;11279;48.364;10.904;2023-07-13T05:24:32;13.02;;;5.35;;
22219;SDS011;11279;48.364;10.904;2023-07-13T05:25:33;7.37;;;3.47;;
22219;SDS011;11279;48.364;10.904;2023-07-13T05:26:34;9.10;;;3.93;;
22219;SDS011;11279;48.364;10.904;2023-07-13T05:27:34;7.33;;;3.40;;
22219;SDS011;11279;48.364;10.904;2023-07-13T05:28:36;7.53;;;3.53;;
22219;SDS011;11279;48.364;10.904;2023-07-13T05:29:36;8.87;;;3.33;;
22219;SDS011;11279;48.364;10.904;2023-07-13T05:30:37;8.20;;;3.37;;
22219;SDS011;11279;48.364;10.904;2023-07-13T05:31:37;8.27;;;3.90;;
22219;SDS011;11279;48.364;10.904;2023-07-13T05:32:37;7.07;;;3.17;;
22219;SDS011;11279;48.364;10.904;2023-07-13T05:33:38;8.33;;;3.37;;
22219;SDS011;11279;48.364;10.904;2023-07-13T05:34:39;10.43;;;3.67;;
22219;SDS011;11279;48.364;10.904;2023-07-13T05:35:39;8.47;;;4.03;;
22219;SDS011;11279;48.364;10.904;2023-07-13T05:36:46;8.77;;;4.43;;
22219;SDS011;11279;48.364;10.904;2023-07-13T05:37:52;8.90;;;3.72;;
22219;SDS011;11279;48.364;10.904;2023-07-13T05:38:52;7.77;;;3.53;;
22219;SDS011;11279;48.364;10.904;2023-07-13T05:39:52;7.23;;;3.53;;
22219;SDS011;11279;48.364;10.904;2023-07-13T05:40:53;7.90;;;3.70;;
22219;SDS011;11279;48.364;10.904;2023-07-13T05:41:55;6.57;;;3.33;;
22219;SDS011;11279;48.364;10.904;2023-07-13T05:42:56;8.10;;;2.90;;
22219;SDS011;11279;48.364;10.904;2023-07-13T05:43:56;6.50;;;3.37;;
22219;SDS011;11279;48.364;10.904;2023-07-13T05:44:57;8.03;;;3.40;;
22219;SDS011;11279;48.364;10.904;2023-07-13T05:45:57;6.53;;;2.80;;
22219;SDS011;11279;48.364;10.904;2023-07-13T05:46:57;7.97;;;2.80;;
22219;SDS011;11279;48.364;10.904;2023-07-13T05:47:58;6.17;;;2.53;;
22219;SDS011;11279;48.364;10.904;2023-07-13T05:48:58;7.47;;;2.80;;
22219;SDS011;11279;48.364;10.904;2023-07-13T05:49:59;7.20;;;2.80;;
22219;SDS011;11279;48.364;10.904;2023-07-13T05:51:00;9.83;;;2.97;;
22219;SDS011;11279;48.364;10.904;2023-07-13T05:52:01;10.65;;;3.17;;
22219;SDS011;11279;48.364;10.904;2023-07-13T05:53:01;6.43;;;2.97;;
22219;SDS011;11279;48.364;10.904;2023-07-13T05:54:02;6.53;;;2.60;;
22219;SDS011;11279;48.364;10.904;2023-07-13T05:55:02;8.93;;;3.47;;
22219;SDS011;11279;48.364;10.904;2023-07-13T05:56:03;8.00;;;3.00;;
22219;SDS011;11279;48.364;10.904;2023-07-13T05:57:03;14.27;;;9.20;;
22219;SDS011;11279;48.364;10.904;2023-07-13T05:58:04;7.70;;;4.00;;
22219;SDS011;11279;48.364;10.904;2023-07-13T05:59:04;7.77;;;3.27;;
22219;SDS011;11279;48.364;10.904;2023-07-13T06:00:05;7.53;;;2.80;;
22219;SDS011;11279;48.364;10.904;2023-07-13T06:01:08;6.97;;;2.90;;